sensor_id;sensor_type;location;lat;lon;timestamp;P1;durP1;ratioP1;P2;durP2;ratioP2
20008;SDS011;10165;42.662;23.260;2024-02-28T00:02:06;52.07;;;20.00;;
20008;SDS011;10165;42.662;23.260;2024-02-28T00:04:32;51.87;;;17.73;;
20008;SDS011;10165;42.662;23.260;2024-02-28T00:06:59;42.37;;;16.30;;
20008;SDS011;10165;42.662;23.260;2024-02-28T00:09:26;32.87;;;14.30;;
20008;SDS011;10165;42.662;23.260;2024-02-28T00:11:53;31.57;;;14.23;;
20008;SDS011;10165;42.662;23.260;2024-02-28T00:14:19;30.47;;;11.50;;
20008;SDS011;10165;42.662;23.260;2024-02-28T00:16:46;28.47;;;12.90;;
20008;SDS011;10165;42.662;23.260;2024-02-28T00:19:14;32.10;;;12.40;;
20008;SDS011;10165;42.662;23.260;2024-02-28T00:21:41;23.83;;;10.23;;
20008;SDS011;10165;42.662;23.260;2024-02-28T00:24:08;19.60;;;9.97;;
20008;SDS011;10165;42.662;23.260;2024-02-28T00:26:35;24.50;;;10.63;;
20008;SDS011;10165;42.662;23.260;2024-02-28T00:29:02;20.90;;;11.50;;
20008;SDS011;10165;42.662;23.260;2024-02-28T00:31:29;21.97;;;10.33;;
20008;SDS011;10165;42.662;23.260;2024-02-28T00:33:56;17.73;;;8.47;;
20008;SDS011;10165;42.662;23.260;2024-02-28T00:36:22;16.97;;;8.23;;
20008;SDS011;10165;42.662;23.260;2024-02-28T00:38:49;16.33;;;7.97;;
20008;SDS011;10165;42.662;23.260;2024-02-28T00:41:16;15.13;;;6.77;;
20008;SDS011;10165;42.662;23.260;2024-02-28T00:43:42;13.17;;;7.67;;
20008;SDS011;10165;42.662;23.260;2024-02-28T00:46:09;18.07;;;7.93;;
20008;SDS011;10165;42.662;23.260;2024-02-28T00:48:38;12.73;;;7.60;;
20008;SDS011;10165;42.662;23.260;2024-02-28T00:51:06;14.60;;;7.50;;
20008;SDS011;10165;42.662;23.260;2024-02-28T00:53:34;18.67;;;6.87;;
20008;SDS011;10165;42.662;23.260;2024-02-28T00:56:01;11.03;;;6.40;;
20008;SDS011;10165;42.662;23.260;2024-02-28T00:58:27;14.03;;;6.93;;
20008;SDS011;10165;42.662;23.260;2024-02-28T01:00:56;12.40;;;7.70;;
20008;SDS011;10165;42.662;23.260;2024-02-28T01:03:23;12.93;;;7.60;;
20008;SDS011;10165;42.662;23.260;2024-02-28T01:05:50;13.90;;;6.93;;
20008;SDS011;10165;42.662;23.260;2024-02-28T01:08:17;10.07;;;6.70;;
20008;SDS011;10165;42.662;23.260;2024-02-28T01:10:44;17.10;;;7.43;;
20008;SDS011;10165;42.662;23.260;2024-02-28T01:13:12;14.40;;;7.87;;
20008;SDS011;10165;42.662;23.260;2024-02-28T01:15:41;12.80;;;7.63;;
20008;SDS011;10165;42.662;23.260;2024-02-28T01:18:09;21.07;;;9.30;;
20008;SDS011;10165;42.662;23.260;2024-02-28T01:20:37;17.50;;;8.13;;
20008;SDS011;10165;42.662;23.260;2024-02-28T01:23:04;14.67;;;6.60;;
20008;SDS011;10165;42.662;23.260;2024-02-28T01:25:30;11.57;;;6.70;;
20008;SDS011;10165;42.662;23.260;2024-02-28T01:27:57;11.23;;;7.20;;
20008;SDS011;10165;42.662;23.260;2024-02-28T01:30:24;16.30;;;6.63;;
20008;SDS011;10165;42.662;23.260;2024-02-28T01:32:52;10.40;;;5.73;;
20008;SDS011;10165;42.662;23.260;2024-02-28T01:35:18;11.40;;;5.93;;
20008;SDS011;10165;42.662;23.260;2024-02-28T01:37:45;13.03;;;6.47;;
20008;SDS011;10165;42.662;23.260;2024-02-28T01:40:12;12.40;;;5.60;;
20008;SDS011;10165;42.662;23.260;2024-02-28T01:42:39;11.87;;;5.70;;
20008;SDS011;10165;42.662;23.260;2024-02-28T01:45:06;11.07;;;6.17;;
20008;SDS011;10165;42.662;23.260;2024-02-28T01:47:35;7.83;;;5.23;;
20008;SDS011;10165;42.662;23.260;2024-02-28T01:50:04;9.00;;;6.13;;
20008;SDS011;10165;42.662;23.260;2024-02-28T01:52:31;11.13;;;5.97;;
20008;SDS011;10165;42.662;23.260;2024-02-28T01:54:58;12.03;;;5.73;;
20008;SDS011;10165;42.662;23.260;2024-02-28T01:57:25;10.17;;;5.70;;
20008;SDS011;10165;42.662;23.260;2024-02-28T01:59:53;11.80;;;5.80;;
20008;SDS011;10165;42.662;23.260;2024-02-28T02:02:22;9.73;;;5.60;;
20008;SDS011;10165;42.662;23.260;2024-02-28T02:04:48;16.63;;;6.13;;
20008;SDS011;10165;42.662;23.260;2024-02-28T02:07:15;10.23;;;6.00;;
20008;SDS011;10165;42.662;23.260;2024-02-28T02:09:42;9.47;;;6.23;;
20008;SDS011;10165;42.662;23.260;2024-02-28T02:12:09;10.20;;;5.37;;
20008;SDS011;10165;42.662;23.260;2024-02-28T02:14:35;16.53;;;6.27;;
20008;SDS011;10165;42.662;23.260;2024-02-28T02:17:03;13.40;;;6.60;;
20008;SDS011;10165;42.662;23.260;2024-02-28T02:19:29;10.47;;;6.40;;
20008;SDS011;10165;42.662;23.260;2024-02-28T02:21:59;16.77;;;5.83;;
20008;SDS011;10165;42.662;23.260;2024-02-28T02:24:29;9.90;;;6.30;;
20008;SDS011;10165;42.662;23.260;2024-02-28T02:26:57;11.23;;;6.23;;
20008;SDS011;10165;42.662;23.260;2024-02-28T02:29:24;8.77;;;5.87;;
20008;SDS011;10165;42.662;23.260;2024-02-28T02:31:51;11.53;;;6.10;;
20008;SDS011;10165;42.662;23.260;2024-02-28T02:34:18;10.63;;;6.03;;
20008;SDS011;10165;42.662;23.260;2024-02-28T02:36:45;9.97;;;6.80;;
20008;SDS011;10165;42.662;23.260;2024-02-28T02:39:11;9.10;;;5.87;;
20008;SDS011;10165;42.662;23.260;2024-02-28T02:41:38;12.27;;;5.93;;
20008;SDS011;10165;42.662;23.260;2024-02-28T02:44:05;8.67;;;5.43;;
20008;SDS011;10165;42.662;23.260;2024-02-28T02:46:33;10.93;;;6.10;;
20008;SDS011;10165;42.662;23.260;2024-02-28T02:49:00;10.13;;;5.90;;
20008;SDS011;10165;42.662;23.260;2024-02-28T02:51:27;11.10;;;6.50;;
20008;SDS011;10165;42.662;23.260;2024-02-28T02:53:54;11.17;;;6.43;;
20008;SDS011;10165;42.662;23.260;2024-02-28T02:56:20;12.73;;;6.97;;
20008;SDS011;10165;42.662;23.260;2024-02-28T02:58:47;15.77;;;6.73;;
20008;SDS011;10165;42.662;23.260;2024-02-28T03:01:14;11.00;;;6.40;;
20008;SDS011;10165;42.662;23.260;2024-02-28T03:03:41;13.73;;;6.93;;
20008;SDS011;10165;42.662;23.260;2024-02-28T03:06:07;11.73;;;6.70;;
20008;SDS011;10165;42.662;23.260;2024-02-28T03:08:36;10.70;;;6.73;;
20008;SDS011;10165;42.662;23.260;2024-02-28T03:11:03;9.57;;;6.00;;
20008;SDS011;10165;42.662;23.260;2024-02-28T03:13:31;10.37;;;7.00;;
20008;SDS011;10165;42.662;23.260;2024-02-28T03:15:57;12.63;;;7.10;;
20008;SDS011;10165;42.662;23.260;2024-02-28T03:18:24;12.33;;;6.83;;
20008;SDS011;10165;42.662;23.260;2024-02-28T03:20:51;18.47;;;7.53;;
20008;SDS011;10165;42.662;23.260;2024-02-28T03:23:18;13.37;;;7.47;;
20008;SDS011;10165;42.662;23.260;2024-02-28T03:25:44;20.73;;;7.63;;
20008;SDS011;10165;42.662;23.260;2024-02-28T03:28:11;12.90;;;7.27;;
20008;SDS011;10165;42.662;23.260;2024-02-28T03:30:38;16.80;;;7.93;;
20008;SDS011;10165;42.662;23.260;2024-02-28T03:33:04;13.60;;;7.57;;
20008;SDS011;10165;42.662;23.260;2024-02-28T03:35:31;12.87;;;6.97;;
20008;SDS011;10165;42.662;23.260;2024-02-28T03:37:58;11.57;;;6.73;;
20008;SDS011;10165;42.662;23.260;2024-02-28T03:40:24;12.03;;;6.73;;
20008;SDS011;10165;42.662;23.260;2024-02-28T03:42:51;11.53;;;6.77;;
20008;SDS011;10165;42.662;23.260;2024-02-28T03:45:18;9.80;;;6.53;;
20008;SDS011;10165;42.662;23.260;2024-02-28T03:47:46;12.40;;;7.50;;
20008;SDS011;10165;42.662;23.260;2024-02-28T03:50:12;17.23;;;7.33;;
20008;SDS011;10165;42.662;23.260;2024-02-28T03:52:40;10.47;;;6.13;;
20008;SDS011;10165;42.662;23.260;2024-02-28T03:55:06;12.10;;;6.87;;
20008;SDS011;10165;42.662;23.260;2024-02-28T03:57:33;17.20;;;7.47;;
20008;SDS011;10165;42.662;23.260;2024-02-28T04:00:00;33.53;;;10.20;;
20008;SDS011;10165;42.662;23.260;2024-02-28T04:02:28;18.00;;;8.50;;
20008;SDS011;10165;42.662;23.260;2024-02-28T04:04:55;21.00;;;9.43;;
20008;SDS011;10165;42.662;23.260;2024-02-28T04:07:21;19.20;;;9.97;;
20008;SDS011;10165;42.662;23.260;2024-02-28T04:09:48;21.53;;;9.50;;
20008;SDS011;10165;42.662;23.260;2024-02-28T04:12:15;16.63;;;9.63;;
20008;SDS011;10165;42.662;23.260;2024-02-28T04:14:42;22.03;;;9.40;;
20008;SDS011;10165;42.662;23.260;2024-02-28T04:17:08;19.07;;;9.73;;
20008;SDS011;10165;42.662;23.260;2024-02-28T04:19:35;18.80;;;8.77;;
20008;SDS011;10165;42.662;23.260;2024-02-28T04:22:05;16.53;;;8.80;;
20008;SDS011;10165;42.662;23.260;2024-02-28T04:24:32;13.67;;;7.87;;
20008;SDS011;10165;42.662;23.260;2024-02-28T04:26:59;22.07;;;9.27;;
20008;SDS011;10165;42.662;23.260;2024-02-28T04:29:26;15.50;;;7.60;;
20008;SDS011;10165;42.662;23.260;2024-02-28T04:31:53;12.03;;;7.80;;
20008;SDS011;10165;42.662;23.260;2024-02-28T04:34:19;14.17;;;7.47;;
20008;SDS011;10165;42.662;23.260;2024-02-28T04:36:46;15.30;;;7.70;;
20008;SDS011;10165;42.662;23.260;2024-02-28T04:39:13;13.07;;;7.00;;
20008;SDS011;10165;42.662;23.260;2024-02-28T04:41:39;12.37;;;7.03;;
20008;SDS011;10165;42.662;23.260;2024-02-28T04:44:06;12.03;;;6.50;;
20008;SDS011;10165;42.662;23.260;2024-02-28T04:46:34;20.07;;;8.27;;
20008;SDS011;10165;42.662;23.260;2024-02-28T04:49:01;14.87;;;8.80;;
20008;SDS011;10165;42.662;23.260;2024-02-28T04:51:27;10.20;;;6.87;;
20008;SDS011;10165;42.662;23.260;2024-02-28T04:53:54;15.33;;;7.70;;
20008;SDS011;10165;42.662;23.260;2024-02-28T04:56:21;12.23;;;6.10;;
20008;SDS011;10165;42.662;23.260;2024-02-28T04:58:47;16.47;;;7.10;;
20008;SDS011;10165;42.662;23.260;2024-02-28T05:01:14;13.13;;;6.17;;
20008;SDS011;10165;42.662;23.260;2024-02-28T05:03:45;11.50;;;6.47;;
20008;SDS011;10165;42.662;23.260;2024-02-28T05:06:12;16.97;;;7.07;;
20008;SDS011;10165;42.662;23.260;2024-02-28T05:08:39;14.10;;;7.23;;
20008;SDS011;10165;42.662;23.260;2024-02-28T05:11:05;15.50;;;8.97;;
20008;SDS011;10165;42.662;23.260;2024-02-28T05:13:32;14.00;;;7.80;;
20008;SDS011;10165;42.662;23.260;2024-02-28T05:15:59;15.57;;;8.40;;
20008;SDS011;10165;42.662;23.260;2024-02-28T05:18:25;14.47;;;8.20;;
20008;SDS011;10165;42.662;23.260;2024-02-28T05:20:52;18.23;;;7.80;;
20008;SDS011;10165;42.662;23.260;2024-02-28T05:23:19;16.97;;;6.97;;
20008;SDS011;10165;42.662;23.260;2024-02-28T05:25:46;15.13;;;8.27;;
20008;SDS011;10165;42.662;23.260;2024-02-28T05:28:13;18.30;;;6.37;;
20008;SDS011;10165;42.662;23.260;2024-02-28T05:30:40;14.47;;;6.50;;
20008;SDS011;10165;42.662;23.260;2024-02-28T05:33:13;11.90;;;6.93;;
20008;SDS011;10165;42.662;23.260;2024-02-28T05:35:39;13.10;;;7.63;;
20008;SDS011;10165;42.662;23.260;2024-02-28T05:38:06;17.27;;;7.83;;
20008;SDS011;10165;42.662;23.260;2024-02-28T05:40:33;18.37;;;7.87;;
20008;SDS011;10165;42.662;23.260;2024-02-28T05:42:59;19.27;;;8.57;;
20008;SDS011;10165;42.662;23.260;2024-02-28T05:45:29;14.70;;;7.40;;
20008;SDS011;10165;42.662;23.260;2024-02-28T05:47:55;17.83;;;8.13;;
20008;SDS011;10165;42.662;23.260;2024-02-28T05:50:22;14.17;;;8.03;;
20008;SDS011;10165;42.662;23.260;2024-02-28T05:52:48;13.07;;;8.53;;
20008;SDS011;10165;42.662;23.260;2024-02-28T05:55:15;15.63;;;8.73;;
20008;SDS011;10165;42.662;23.260;2024-02-28T05:57:42;13.57;;;7.77;;
20008;SDS011;10165;42.662;23.260;2024-02-28T06:00:09;23.07;;;8.97;;
20008;SDS011;10165;42.662;23.260;2024-02-28T06:02:37;18.43;;;8.27;;
20008;SDS011;10165;42.662;23.260;2024-02-28T06:05:04;14.20;;;8.60;;
20008;SDS011;10165;42.662;23.260;2024-02-28T06:07:31;13.83;;;8.70;;
20008;SDS011;10165;42.662;23.260;2024-02-28T06:09:58;15.43;;;8.50;;
20008;SDS011;10165;42.662;23.260;2024-02-28T06:12:24;18.53;;;9.00;;
20008;SDS011;10165;42.662;23.260;2024-02-28T06:14:51;20.83;;;10.43;;
20008;SDS011;10165;42.662;23.260;2024-02-28T06:17:18;21.57;;;11.50;;
20008;SDS011;10165;42.662;23.260;2024-02-28T06:19:47;24.13;;;11.67;;
20008;SDS011;10165;42.662;23.260;2024-02-28T06:22:14;24.10;;;12.67;;
20008;SDS011;10165;42.662;23.260;2024-02-28T06:24:41;20.27;;;11.37;;
20008;SDS011;10165;42.662;23.260;2024-02-28T06:27:08;23.50;;;11.77;;
20008;SDS011;10165;42.662;23.260;2024-02-28T06:29:39;21.93;;;11.23;;
20008;SDS011;10165;42.662;23.260;2024-02-28T06:32:07;18.93;;;11.50;;
20008;SDS011;10165;42.662;23.260;2024-02-28T06:34:34;21.57;;;11.80;;
20008;SDS011;10165;42.662;23.260;2024-02-28T06:37:01;21.97;;;11.73;;
20008;SDS011;10165;42.662;23.260;2024-02-28T06:39:27;20.77;;;10.37;;
20008;SDS011;10165;42.662;23.260;2024-02-28T06:41:54;22.87;;;12.43;;
20008;SDS011;10165;42.662;23.260;2024-02-28T06:44:21;21.43;;;12.37;;
20008;SDS011;10165;42.662;23.260;2024-02-28T06:46:47;22.27;;;11.53;;
20008;SDS011;10165;42.662;23.260;2024-02-28T06:49:14;27.87;;;11.07;;
20008;SDS011;10165;42.662;23.260;2024-02-28T06:51:42;21.90;;;11.93;;
20008;SDS011;10165;42.662;23.260;2024-02-28T06:54:11;26.90;;;13.10;;
20008;SDS011;10165;42.662;23.260;2024-02-28T06:56:38;25.47;;;12.37;;
20008;SDS011;10165;42.662;23.260;2024-02-28T06:59:05;20.77;;;11.20;;
20008;SDS011;10165;42.662;23.260;2024-02-28T07:01:33;23.70;;;11.80;;
20008;SDS011;10165;42.662;23.260;2024-02-28T07:04:00;16.87;;;10.10;;
20008;SDS011;10165;42.662;23.260;2024-02-28T07:06:27;18.83;;;10.40;;
20008;SDS011;10165;42.662;23.260;2024-02-28T07:08:54;21.80;;;11.50;;
20008;SDS011;10165;42.662;23.260;2024-02-28T07:11:20;23.10;;;12.27;;
20008;SDS011;10165;42.662;23.260;2024-02-28T07:13:48;27.83;;;12.43;;
20008;SDS011;10165;42.662;23.260;2024-02-28T07:16:14;22.23;;;10.60;;
20008;SDS011;10165;42.662;23.260;2024-02-28T07:18:41;19.33;;;11.30;;
20008;SDS011;10165;42.662;23.260;2024-02-28T07:21:08;19.17;;;10.27;;
20008;SDS011;10165;42.662;23.260;2024-02-28T07:23:35;21.33;;;11.03;;
20008;SDS011;10165;42.662;23.260;2024-02-28T07:26:05;20.53;;;11.20;;
20008;SDS011;10165;42.662;23.260;2024-02-28T07:28:44;19.23;;;11.63;;
20008;SDS011;10165;42.662;23.260;2024-02-28T07:31:16;25.53;;;10.83;;
20008;SDS011;10165;42.662;23.260;2024-02-28T07:33:43;18.30;;;10.70;;
20008;SDS011;10165;42.662;23.260;2024-02-28T07:36:10;27.20;;;11.90;;
20008;SDS011;10165;42.662;23.260;2024-02-28T07:38:37;21.57;;;12.83;;
20008;SDS011;10165;42.662;23.260;2024-02-28T07:41:04;26.03;;;11.60;;
20008;SDS011;10165;42.662;23.260;2024-02-28T07:43:31;32.33;;;13.70;;
20008;SDS011;10165;42.662;23.260;2024-02-28T07:46:11;21.93;;;10.90;;
20008;SDS011;10165;42.662;23.260;2024-02-28T07:48:38;21.20;;;11.43;;
20008;SDS011;10165;42.662;23.260;2024-02-28T07:51:06;25.50;;;13.03;;
20008;SDS011;10165;42.662;23.260;2024-02-28T07:53:33;22.90;;;11.53;;
20008;SDS011;10165;42.662;23.260;2024-02-28T07:56:01;22.43;;;13.07;;
20008;SDS011;10165;42.662;23.260;2024-02-28T07:58:27;21.47;;;10.10;;
20008;SDS011;10165;42.662;23.260;2024-02-28T08:00:54;15.13;;;8.70;;
20008;SDS011;10165;42.662;23.260;2024-02-28T08:03:22;15.90;;;9.30;;
20008;SDS011;10165;42.662;23.260;2024-02-28T08:05:49;18.30;;;9.83;;
20008;SDS011;10165;42.662;23.260;2024-02-28T08:08:15;21.53;;;10.33;;
20008;SDS011;10165;42.662;23.260;2024-02-28T08:10:42;16.63;;;8.23;;
20008;SDS011;10165;42.662;23.260;2024-02-28T08:13:09;17.03;;;9.53;;
20008;SDS011;10165;42.662;23.260;2024-02-28T08:15:35;20.50;;;10.93;;
20008;SDS011;10165;42.662;23.260;2024-02-28T08:18:02;21.93;;;12.57;;
20008;SDS011;10165;42.662;23.260;2024-02-28T08:20:29;24.77;;;11.57;;
20008;SDS011;10165;42.662;23.260;2024-02-28T08:22:56;17.57;;;10.23;;
20008;SDS011;10165;42.662;23.260;2024-02-28T08:25:24;24.40;;;10.77;;
20008;SDS011;10165;42.662;23.260;2024-02-28T08:27:51;20.87;;;11.77;;
20008;SDS011;10165;42.662;23.260;2024-02-28T08:30:18;21.43;;;11.03;;
20008;SDS011;10165;42.662;23.260;2024-02-28T08:32:44;16.33;;;9.77;;
20008;SDS011;10165;42.662;23.260;2024-02-28T08:35:11;20.97;;;10.47;;
20008;SDS011;10165;42.662;23.260;2024-02-28T08:37:38;24.80;;;11.30;;
20008;SDS011;10165;42.662;23.260;2024-02-28T08:40:06;18.00;;;10.20;;
20008;SDS011;10165;42.662;23.260;2024-02-28T08:42:33;21.77;;;10.20;;
20008;SDS011;10165;42.662;23.260;2024-02-28T08:45:00;18.50;;;9.50;;
20008;SDS011;10165;42.662;23.260;2024-02-28T08:47:27;17.37;;;10.07;;
20008;SDS011;10165;42.662;23.260;2024-02-28T08:49:54;19.03;;;9.73;;
20008;SDS011;10165;42.662;23.260;2024-02-28T08:52:21;21.97;;;10.40;;
20008;SDS011;10165;42.662;23.260;2024-02-28T08:54:48;19.63;;;10.90;;
20008;SDS011;10165;42.662;23.260;2024-02-28T08:57:15;19.57;;;9.97;;
20008;SDS011;10165;42.662;23.260;2024-02-28T08:59:42;17.77;;;10.93;;
20008;SDS011;10165;42.662;23.260;2024-02-28T09:02:09;19.07;;;9.23;;
20008;SDS011;10165;42.662;23.260;2024-02-28T09:04:37;22.53;;;11.07;;
20008;SDS011;10165;42.662;23.260;2024-02-28T09:07:04;22.07;;;10.87;;
20008;SDS011;10165;42.662;23.260;2024-02-28T09:09:31;24.47;;;10.63;;
20008;SDS011;10165;42.662;23.260;2024-02-28T09:12:00;18.87;;;9.40;;
20008;SDS011;10165;42.662;23.260;2024-02-28T09:14:29;23.67;;;10.37;;
20008;SDS011;10165;42.662;23.260;2024-02-28T09:16:56;16.67;;;10.67;;
20008;SDS011;10165;42.662;23.260;2024-02-28T09:19:30;25.37;;;10.47;;
20008;SDS011;10165;42.662;23.260;2024-02-28T09:21:57;24.37;;;11.87;;
20008;SDS011;10165;42.662;23.260;2024-02-28T09:24:24;22.23;;;10.53;;
20008;SDS011;10165;42.662;23.260;2024-02-28T09:26:51;22.20;;;10.17;;
20008;SDS011;10165;42.662;23.260;2024-02-28T09:29:18;22.73;;;10.97;;
20008;SDS011;10165;42.662;23.260;2024-02-28T09:31:45;25.57;;;10.40;;
20008;SDS011;10165;42.662;23.260;2024-02-28T09:34:11;20.83;;;10.27;;
20008;SDS011;10165;42.662;23.260;2024-02-28T09:36:41;19.30;;;10.47;;
20008;SDS011;10165;42.662;23.260;2024-02-28T09:39:12;22.77;;;11.30;;
20008;SDS011;10165;42.662;23.260;2024-02-28T09:41:39;18.73;;;9.83;;
20008;SDS011;10165;42.662;23.260;2024-02-28T09:44:07;26.63;;;10.67;;
20008;SDS011;10165;42.662;23.260;2024-02-28T09:46:34;25.93;;;10.67;;
20008;SDS011;10165;42.662;23.260;2024-02-28T09:49:01;17.33;;;9.13;;
20008;SDS011;10165;42.662;23.260;2024-02-28T09:51:33;20.67;;;10.13;;
20008;SDS011;10165;42.662;23.260;2024-02-28T09:54:04;18.20;;;9.90;;
20008;SDS011;10165;42.662;23.260;2024-02-28T09:56:32;20.83;;;9.97;;
20008;SDS011;10165;42.662;23.260;2024-02-28T09:58:59;22.73;;;9.50;;
20008;SDS011;10165;42.662;23.260;2024-02-28T10:01:28;15.93;;;9.93;;
20008;SDS011;10165;42.662;23.260;2024-02-28T10:03:58;23.33;;;10.20;;
20008;SDS011;10165;42.662;23.260;2024-02-28T10:06:27;20.20;;;11.37;;
20008;SDS011;10165;42.662;23.260;2024-02-28T10:08:54;25.03;;;11.17;;
20008;SDS011;10165;42.662;23.260;2024-02-28T10:11:23;20.23;;;10.20;;
20008;SDS011;10165;42.662;23.260;2024-02-28T10:13:52;23.13;;;11.33;;
20008;SDS011;10165;42.662;23.260;2024-02-28T10:16:19;22.03;;;10.47;;
20008;SDS011;10165;42.662;23.260;2024-02-28T10:18:45;18.77;;;10.07;;
20008;SDS011;10165;42.662;23.260;2024-02-28T10:21:12;20.97;;;10.63;;
20008;SDS011;10165;42.662;23.260;2024-02-28T10:23:41;25.97;;;11.33;;
20008;SDS011;10165;42.662;23.260;2024-02-28T10:26:08;23.77;;;12.10;;
20008;SDS011;10165;42.662;23.260;2024-02-28T10:28:39;19.70;;;10.73;;
20008;SDS011;10165;42.662;23.260;2024-02-28T10:31:06;17.37;;;9.90;;
20008;SDS011;10165;42.662;23.260;2024-02-28T10:33:34;24.23;;;11.80;;
20008;SDS011;10165;42.662;23.260;2024-02-28T10:36:03;20.70;;;10.57;;
20008;SDS011;10165;42.662;23.260;2024-02-28T10:38:30;20.53;;;9.23;;
20008;SDS011;10165;42.662;23.260;2024-02-28T10:41:02;17.60;;;9.97;;
20008;SDS011;10165;42.662;23.260;2024-02-28T10:43:29;18.93;;;9.93;;
20008;SDS011;10165;42.662;23.260;2024-02-28T10:46:00;21.47;;;10.27;;
20008;SDS011;10165;42.662;23.260;2024-02-28T10:48:30;25.63;;;10.13;;
20008;SDS011;10165;42.662;23.260;2024-02-28T10:50:57;24.47;;;10.33;;
20008;SDS011;10165;42.662;23.260;2024-02-28T10:53:29;29.93;;;11.27;;
20008;SDS011;10165;42.662;23.260;2024-02-28T10:56:02;19.47;;;8.97;;
20008;SDS011;10165;42.662;23.260;2024-02-28T10:58:33;19.33;;;10.20;;
20008;SDS011;10165;42.662;23.260;2024-02-28T11:01:05;18.30;;;9.80;;
20008;SDS011;10165;42.662;23.260;2024-02-28T11:03:32;16.37;;;9.07;;
20008;SDS011;10165;42.662;23.260;2024-02-28T11:05:59;22.43;;;9.17;;
20008;SDS011;10165;42.662;23.260;2024-02-28T11:08:27;15.73;;;8.17;;
20008;SDS011;10165;42.662;23.260;2024-02-28T11:10:55;18.70;;;10.00;;
20008;SDS011;10165;42.662;23.260;2024-02-28T11:13:26;18.57;;;10.20;;
20008;SDS011;10165;42.662;23.260;2024-02-28T11:15:54;21.53;;;9.17;;
20008;SDS011;10165;42.662;23.260;2024-02-28T11:18:23;17.47;;;8.23;;
20008;SDS011;10165;42.662;23.260;2024-02-28T11:20:50;15.37;;;8.60;;
20008;SDS011;10165;42.662;23.260;2024-02-28T11:23:17;15.33;;;7.87;;
20008;SDS011;10165;42.662;23.260;2024-02-28T11:25:44;19.40;;;8.00;;
20008;SDS011;10165;42.662;23.260;2024-02-28T11:28:11;16.57;;;7.77;;
20008;SDS011;10165;42.662;23.260;2024-02-28T11:30:37;14.80;;;8.10;;
20008;SDS011;10165;42.662;23.260;2024-02-28T11:33:04;14.83;;;8.37;;
20008;SDS011;10165;42.662;23.260;2024-02-28T11:35:32;15.10;;;7.63;;
20008;SDS011;10165;42.662;23.260;2024-02-28T11:37:59;14.10;;;6.77;;
20008;SDS011;10165;42.662;23.260;2024-02-28T11:40:26;11.47;;;6.67;;
20008;SDS011;10165;42.662;23.260;2024-02-28T11:42:56;16.53;;;6.93;;
20008;SDS011;10165;42.662;23.260;2024-02-28T11:45:22;12.73;;;6.67;;
20008;SDS011;10165;42.662;23.260;2024-02-28T11:47:49;14.20;;;6.57;;
20008;SDS011;10165;42.662;23.260;2024-02-28T11:50:16;11.70;;;5.60;;
20008;SDS011;10165;42.662;23.260;2024-02-28T11:52:45;9.20;;;5.90;;
20008;SDS011;10165;42.662;23.260;2024-02-28T11:55:12;10.63;;;5.90;;
20008;SDS011;10165;42.662;23.260;2024-02-28T11:57:39;12.07;;;5.73;;
20008;SDS011;10165;42.662;23.260;2024-02-28T12:00:07;10.70;;;6.43;;
20008;SDS011;10165;42.662;23.260;2024-02-28T12:02:35;13.77;;;6.53;;
20008;SDS011;10165;42.662;23.260;2024-02-28T12:05:02;17.30;;;6.37;;
20008;SDS011;10165;42.662;23.260;2024-02-28T12:07:31;11.33;;;5.97;;
20008;SDS011;10165;42.662;23.260;2024-02-28T12:09:59;12.87;;;5.57;;
20008;SDS011;10165;42.662;23.260;2024-02-28T12:12:29;12.10;;;6.17;;
20008;SDS011;10165;42.662;23.260;2024-02-28T12:14:59;10.80;;;5.33;;
20008;SDS011;10165;42.662;23.260;2024-02-28T12:17:26;8.30;;;5.40;;
20008;SDS011;10165;42.662;23.260;2024-02-28T12:19:53;11.00;;;4.70;;
20008;SDS011;10165;42.662;23.260;2024-02-28T12:22:22;7.73;;;4.37;;
20008;SDS011;10165;42.662;23.260;2024-02-28T12:24:48;10.47;;;5.00;;
20008;SDS011;10165;42.662;23.260;2024-02-28T12:27:15;12.90;;;5.37;;
20008;SDS011;10165;42.662;23.260;2024-02-28T12:29:42;9.63;;;4.03;;
20008;SDS011;10165;42.662;23.260;2024-02-28T12:32:09;7.37;;;4.33;;
20008;SDS011;10165;42.662;23.260;2024-02-28T12:34:36;15.00;;;5.73;;
20008;SDS011;10165;42.662;23.260;2024-02-28T12:37:03;7.40;;;5.13;;
20008;SDS011;10165;42.662;23.260;2024-02-28T12:39:31;8.80;;;5.63;;
20008;SDS011;10165;42.662;23.260;2024-02-28T12:42:01;9.47;;;4.53;;
20008;SDS011;10165;42.662;23.260;2024-02-28T12:44:27;10.23;;;4.90;;
20008;SDS011;10165;42.662;23.260;2024-02-28T12:46:54;7.30;;;4.17;;
20008;SDS011;10165;42.662;23.260;2024-02-28T12:49:21;6.27;;;3.80;;
20008;SDS011;10165;42.662;23.260;2024-02-28T12:51:48;6.47;;;4.17;;
20008;SDS011;10165;42.662;23.260;2024-02-28T12:54:15;9.93;;;4.63;;
20008;SDS011;10165;42.662;23.260;2024-02-28T12:56:42;8.37;;;3.67;;
20008;SDS011;10165;42.662;23.260;2024-02-28T12:59:09;4.90;;;3.97;;
20008;SDS011;10165;42.662;23.260;2024-02-28T13:01:37;7.70;;;3.97;;
20008;SDS011;10165;42.662;23.260;2024-02-28T13:04:04;9.53;;;5.10;;
20008;SDS011;10165;42.662;23.260;2024-02-28T13:06:31;14.97;;;5.80;;
20008;SDS011;10165;42.662;23.260;2024-02-28T13:08:58;9.70;;;4.60;;
20008;SDS011;10165;42.662;23.260;2024-02-28T13:11:25;9.50;;;6.17;;
20008;SDS011;10165;42.662;23.260;2024-02-28T13:13:52;9.63;;;5.87;;
20008;SDS011;10165;42.662;23.260;2024-02-28T13:16:19;11.90;;;5.70;;
20008;SDS011;10165;42.662;23.260;2024-02-28T13:18:46;10.07;;;6.40;;
20008;SDS011;10165;42.662;23.260;2024-02-28T13:21:13;9.93;;;5.50;;
20008;SDS011;10165;42.662;23.260;2024-02-28T13:23:40;10.03;;;6.23;;
20008;SDS011;10165;42.662;23.260;2024-02-28T13:26:07;13.23;;;5.90;;
20008;SDS011;10165;42.662;23.260;2024-02-28T13:28:33;11.33;;;5.97;;
20008;SDS011;10165;42.662;23.260;2024-02-28T13:31:02;8.60;;;5.50;;
20008;SDS011;10165;42.662;23.260;2024-02-28T13:33:32;14.47;;;7.27;;
20008;SDS011;10165;42.662;23.260;2024-02-28T13:35:59;15.13;;;7.13;;
20008;SDS011;10165;42.662;23.260;2024-02-28T13:38:25;14.00;;;6.73;;
20008;SDS011;10165;42.662;23.260;2024-02-28T13:40:52;10.77;;;6.60;;
20008;SDS011;10165;42.662;23.260;2024-02-28T13:43:19;14.30;;;6.67;;
20008;SDS011;10165;42.662;23.260;2024-02-28T13:45:46;13.30;;;7.23;;
20008;SDS011;10165;42.662;23.260;2024-02-28T13:48:32;11.73;;;6.93;;
20008;SDS011;10165;42.662;23.260;2024-02-28T13:51:00;11.33;;;6.53;;
20008;SDS011;10165;42.662;23.260;2024-02-28T13:53:29;11.23;;;5.50;;
20008;SDS011;10165;42.662;23.260;2024-02-28T13:55:55;10.53;;;7.17;;
20008;SDS011;10165;42.662;23.260;2024-02-28T13:58:22;12.10;;;5.73;;
20008;SDS011;10165;42.662;23.260;2024-02-28T14:00:50;11.47;;;6.20;;
20008;SDS011;10165;42.662;23.260;2024-02-28T14:03:17;10.50;;;6.33;;
20008;SDS011;10165;42.662;23.260;2024-02-28T14:05:44;15.17;;;6.10;;
20008;SDS011;10165;42.662;23.260;2024-02-28T14:08:10;13.50;;;6.03;;
20008;SDS011;10165;42.662;23.260;2024-02-28T14:10:39;11.57;;;5.63;;
20008;SDS011;10165;42.662;23.260;2024-02-28T14:13:06;9.67;;;5.43;;
20008;SDS011;10165;42.662;23.260;2024-02-28T14:15:33;13.40;;;5.80;;
20008;SDS011;10165;42.662;23.260;2024-02-28T14:18:02;11.93;;;5.77;;
20008;SDS011;10165;42.662;23.260;2024-02-28T14:20:30;12.20;;;6.30;;